x

Point Arguello, Ca (ptgc1) Weather Station

9:00 - Thu 17th Aug 2017 All times are PDT. -7 hours from GMT.

  • Wind
    15mph, 17mph gusts
  • Ar Temp 61°f
  • Sea Pressure 1016.2mb
  • Point Arguello, Ca
  • Point Arguello, Ca

More Historic Weather Station data

Upgrade to MSW Pro to gain access to the past 30 days of data for over 8000 Wavebouys and Weather Stations around the globe.

Join

Comparision Forecast

View Surf forecast
   
Qui 08/17 9:00 15 17 mph 1016.2mb 61f
8:00 16 17 mph 1016mb 61f
7:00 13 15 mph 1015.8mb 61f
6:00 16 18 mph 1015.8mb 61f
5:00 14 15 mph 1015.8mb 61f
4:00 13 13 mph 1016.3mb 60f
3:00 11 13 mph 1016.7mb 60f
2:00 10 11 mph 1017.3mb 60f
1:00 9 10 mph 1017.5mb 60f
12:00 10 11 mph 1017.8mb 59f
11:00 11 13 mph 1017.9mb 59f
10:00 14 15 mph 1017.6mb 59f
9:00 16 17 mph 1017.3mb 59f
8:00 14 16 mph 1016.9mb 59f
7:00 14 15 mph 1016.3mb 59f
6:00 13 14 mph 1015.8mb 59f
5:00 14 15 mph 1015.4mb 59f
4:00 16 17 mph 1015.4mb 59f
3:00 16 17 mph 1015.4mb 59f
2:00 14 16 mph 1015.6mb 59f
1:00 15 16 mph 1015.7mb 59f
12:00 15 17 mph 1015.9mb 60f
Qua 08/16 11:00 16 17 mph 1015.9mb 60f
10:00 15 16 mph 1016.1mb 60f
9:00 14 16 mph 1015.8mb 60f
8:00 15 16 mph 1015.3mb 60f
7:00 14 15 mph 1015.1mb 60f
6:00 14 16 mph 1015.4mb 61f
5:00 14 16 mph 1015.5mb 60f
4:00 13 14 mph 1015.8mb 59f
3:00 11 13 mph 1016.2mb 59f
2:00 9 10 mph 1016.3mb 59f
1:00 10 10 mph 1016.7mb 59f
12:00 13 13 mph 1016.6mb 58f
11:00 13 14 mph 1016.4mb 59f
10:00 13 13 mph 1016.5mb 59f
9:00 14 14 mph 1016.4mb 59f
8:00 14 15 mph 1016.1mb 59f
7:00 13 14 mph 1015.5mb 59f
6:00 13 15 mph 1015mb 59f
5:00 15 16 mph 1014.7mb 58f
4:00 16 17 mph 1014.5mb 58f
3:00 15 16 mph 1014.5mb 58f
2:00 15 17 mph 1014.4mb 58f
1:00 14 15 mph 1014.4mb 57f
12:00 14 16 mph 1014.4mb 58f
Ter 08/15 11:00 14 16 mph 1014.5mb 58f
10:00 16 17 mph 1014.1mb 58f
9:00 17 20 mph 1013.6mb 59f
8:00 17 17 mph 1013.4mb 59f
7:00 17 18 mph 1013.2mb 59f
6:00 15 16 mph 1013.6mb 60f
5:00 14 14 mph 1013.8mb 59f
4:00 13 13 mph 1014.3mb 59f
3:00 10 11 mph 1014.5mb 59f
2:00 9 10 mph 1014.8mb 59f
1:00 10 11 mph 1014.9mb 59f
12:00 10 11 mph 1015mb 59f
11:00 10 10 mph 1015mb 59f
10:00 10 10 mph 1014.7mb 59f
9:00 10 10 mph 1014.5mb 58f
8:00 10 11 mph 1014mb 59f
7:00 11 14 mph 1013.4mb 58f
6:00 13 15 mph 1013.1mb 58f
5:00 14 15 mph 1012.9mb 58f
4:00 17 18 mph 1012.8mb 58f
3:00 18 18 mph 1012.7mb 57f
2:00 22 23 mph 1012.7mb 58f
1:00 18 20 mph 1012.9mb 57f
12:00 23 24 mph 1012.6mb 57f
Seg 08/14 11:00 22 23 mph 1012.7mb 57f
10:00 22 24 mph 1012.9mb 58f
9:00 24 25 mph 1012.6mb 58f
8:00 21 22 mph 1012.4mb 59f
7:00 21 22 mph 1012.7mb 58f
6:00 18 20 mph 1012.7mb 58f
4:00 22 24 mph 1013.2mb 58f
3:00 20 21 mph 1013.6mb 58f
2:00 18 21 mph 1014mb 58f
1:00 16 17 mph 1014.3mb 57f
12:00 10 11 mph 1014.7mb 58f
11:00 9 11 mph 1014.7mb 59f
10:00 10 11 mph 1014.4mb 58f
9:00 13 14 mph 1014.1mb 58f
8:00 14 16 mph 1013.7mb 57f
7:00 14 16 mph 1013.4mb 56f
6:00 15 16 mph 1013mb 57f